Airfield :
LOGIN :

Register | Disclaimer

   EN    FR    IT 

 










Legend :    VFR   Marginal VFR   IFR   Intensive IFR   Very Intensive IFR
Visi :
Ceiling :
>= 8 km
>= 3000ft
5 to 8 km
1000 to 3000 ft
1500m to 5 km
500 to 1000 ft
800 to 1500m
200 to 500 ft
< 800m
< 200 ft
Symbols :   Thunderstorms  Fog  Heavy snow  Heavy precipitations  Wind > 20 kt
SIGMETs :     Misc.  Thunderstorms  Icing  Turbulence  Mountain Waves  Volcanic Ashes






- Airport Elevation : 83 ft
- IATA code : LHR


EGLL - London Heathrow

CURRENT METAR :
  • 230750Z AUTO 20005KT 9999 SCT021 13/11 Q1007 NOSIG

EXPIRED METARs :
  • 230720Z AUTO 22007KT 9999 BKN015 12/11 Q1007 NOSIG
  • 230650Z AUTO 20006KT 9999 BKN016 BKN024 12/11 Q1007 NOSIG
  • 230620Z AUTO 21007KT 9999 SCT018 BKN023 12/11 Q1007
  • 230550Z AUTO 21006KT 9999 BKN016 BKN024 12/11 Q1007 NOSIG
  • 230520Z AUTO 18004KT 9999 SCT016/// BKN024/// BKN029/// //////TCU 11/10 Q1007 NOSIG

TAF TAF EGLL
Valid from the 23 at 06:00 until the 24 at 12:00 UTC


230454Z 2306/2412 16004KT 9999 SCT015
BECMG 2306/2309 22010KT
PROB40
TEMPO 2306/2310 BKN012
PROB30
TEMPO 2306/2314 7000 SHRA RA
PROB40
TEMPO 2314/2320 6000 -RADZ BKN010
BECMG 2408/2411 19020G30KT
PROB30
TEMPO 2408/2412 8000 -RA BKN014



MET'MAP, your aeronautical weather chart ! - Copyright ORBIFLY December 2007 - Disclaimer

ORBIFLY MET'MAP TEAM :

Programming & Development : Alexandra Zaïnal
Concept & original design : Baudouin d'Aumeries
Assistance for programming : Marc-Olivier Méhu
Technical & hardware support : Manuel Goepfert

Contact : metmap@orbifly.com




SOURCES & CREDITS :

   NOAA